This is the latest recevied weather packets stored in our database for station/object GW1490. If no packets are shown the sender has not sent any weather packets the latest 10 day(s).
| Time | Temp. | Humidity | Pressure | Rain* | Wind** | Luminosity | Snow |
|---|---|---|---|---|---|---|---|
| 1778056766 | 14.44° C | 99% | 988.1 hPa | 4.83 mm | - | - | - |
| 1778056417 | 14.44° C | 99% | 988.4 hPa | 4.57 mm | - | - | - |
| 1778052789 | 14.44° C | 99% | 988.1 hPa | 3.3 mm | - | - | - |
| 1778052103 | 14.44° C | 99% | 988.1 hPa | 3.3 mm | - | - | - |
| 1778050278 | 15° C | 97% | 988.8 hPa | 2.79 mm | - | - | - |
| 1778048110 | 15° C | 98% | 989.8 hPa | 0.51 mm | - | - | - |
| 1778045952 | 15° C | 98% | 989.1 hPa | 0.25 mm | - | - | - |
| 1778040229 | 15.56° C | 96% | 989.5 hPa | 0 mm | - | - | - |
| 1778038035 | 15.56° C | 91% | 989.8 hPa | 0 mm | - | - | - |
| 1778037350 | 15.56° C | 92% | 989.8 hPa | 0 mm | - | - | - |
| 1778036267 | 16.11° C | 89% | 990.1 hPa | 0 mm | - | - | - |
| 1778035889 | 16.67° C | 86% | 990.1 hPa | 0 mm | - | - | - |
| 1778032311 | 18.33° C | 76% | 989.5 hPa | 0 mm | - | - | - |
| 1778024727 | 22.22° C | 47% | 990.1 hPa | 0 mm | - | - | - |
| 1778019674 | 23.33° C | 50% | 990.1 hPa | 0 mm | - | - | - |
| 1778018261 | 23.33° C | 49% | 990.5 hPa | 0 mm | - | - | - |
| 1778017909 | 23.33° C | 50% | 990.8 hPa | 0 mm | - | - | - |
| 1778017181 | 23.89° C | 48% | 990.8 hPa | 0 mm | - | - | - |
| 1778016463 | 23.89° C | 48% | 990.8 hPa | 0 mm | - | - | - |
| 1778011780 | 23.89° C | 49% | 991.5 hPa | 0 mm | - | - | - |
| 1778008172 | 23.89° C | 54% | 992.5 hPa | 0 mm | - | - | - |
| 1778007816 | 23.89° C | 52% | 992.2 hPa | 0 mm | - | - | - |
| 1778003485 | 23.33° C | 54% | 993.2 hPa | 0 mm | - | - | - |
| 1778003125 | 23.33° C | 53% | 992.8 hPa | 0 mm | - | - | - |
| 1778000979 | 23.89° C | 50% | 992.8 hPa | 0 mm | - | - | - |
* Rain since midnight (hover to see other rain measurements)
** Current wind speed in m/s (hover to see current wind gust speed)